createdAt,value
2023-05-19T00:00:58.204Z,96809.91
2023-05-19T00:01:59.750Z,96816.00
2023-05-19T00:03:01.351Z,96804.09
2023-05-19T00:04:03.082Z,96803.25
2023-05-19T00:05:04.678Z,96809.63
2023-05-19T00:06:06.193Z,96807.25
2023-05-19T00:07:07.798Z,96801.94
2023-05-19T00:08:09.284Z,96800.38
2023-05-19T00:09:10.793Z,96801.41
2023-05-19T00:10:12.318Z,96804.31
2023-05-19T00:11:13.801Z,96804.31
2023-05-19T00:12:15.354Z,96804.63
2023-05-19T00:13:16.864Z,96803.28
2023-05-19T00:14:18.340Z,96801.44
2023-05-19T00:15:19.833Z,96799.03
2023-05-19T00:16:21.469Z,96803.28
2023-05-19T00:17:23.070Z,96800.09
2023-05-19T00:18:24.540Z,96799.56
2023-05-19T00:19:26.431Z,96800.34
2023-05-19T00:20:28.066Z,96802.22
2023-05-19T00:21:29.567Z,96795.59
2023-05-19T00:22:31.089Z,96797.47
2023-05-19T00:23:32.602Z,96792.94
2023-05-19T00:24:34.105Z,96794.81
2023-05-19T00:25:35.599Z,96792.41
2023-05-19T00:26:37.137Z,96792.66
2023-05-19T00:27:38.660Z,96783.16
2023-05-19T00:28:40.170Z,96784.97
2023-05-19T00:29:41.691Z,96789.75
2023-05-19T00:30:43.189Z,96784.75
2023-05-19T00:31:44.740Z,96785.78
2023-05-19T00:32:46.303Z,96785.78
2023-05-19T00:33:47.814Z,96784.22
2023-05-19T00:34:49.316Z,96787.09
2023-05-19T00:35:50.774Z,96783.66
2023-05-19T00:36:52.275Z,96783.09
2023-05-19T00:37:54.296Z,96783.91
2023-05-19T00:38:55.912Z,96786.03
2023-05-19T00:39:57.414Z,96784.41
2023-05-19T00:40:58.916Z,96782.84
2023-05-19T00:42:00.435Z,96775.16
2023-05-19T00:43:01.968Z,96778.84
2023-05-19T00:44:03.520Z,96775.66
2023-05-19T00:45:05.031Z,96774.09
2023-05-19T00:46:06.560Z,96777.78
2023-05-19T00:47:08.328Z,96778.84
2023-05-19T00:48:10.060Z,96777.25
2023-05-19T00:49:11.595Z,96768.53
2023-05-19T00:50:13.117Z,96767.72
2023-05-19T00:51:14.687Z,96769.84
2023-05-19T00:52:16.217Z,96771.97
2023-05-19T00:53:17.780Z,96773.00
2023-05-19T00:54:19.254Z,96767.72
2023-05-19T00:55:20.869Z,96770.63
2023-05-19T00:56:22.474Z,96768.25
2023-05-19T00:57:23.986Z,96773.81
2023-05-19T00:58:25.506Z,96769.56
2023-05-19T00:59:26.976Z,96771.41
2023-05-19T01:00:28.521Z,96770.88
2023-05-19T01:01:30.233Z,96759.75
2023-05-19T01:02:31.846Z,96772.22
2023-05-19T01:03:33.490Z,96761.88
2023-05-19T01:04:35.028Z,96757.63
2023-05-19T01:05:36.511Z,96762.38
2023-05-19T01:06:38.006Z,96765.31
2023-05-19T01:07:39.511Z,96762.94
2023-05-19T01:08:41.170Z,96753.94
2023-05-19T01:09:42.700Z,96762.41
2023-05-19T01:10:44.245Z,96760.00
2023-05-19T01:11:45.780Z,96758.44
2023-05-19T01:12:47.266Z,96760.53
2023-05-19T01:13:48.870Z,96771.41
2023-05-19T01:14:50.368Z,96762.66
2023-05-19T01:15:51.913Z,96765.56
2023-05-19T01:16:53.505Z,96760.53
2023-05-19T01:17:55.149Z,96756.56
2023-05-19T01:18:56.719Z,96760.25
2023-05-19T01:19:58.251Z,96758.94
2023-05-19T01:20:59.753Z,96750.97
2023-05-19T01:22:01.329Z,96761.81
2023-05-19T01:23:02.853Z,96763.16
2023-05-19T01:24:04.376Z,96761.53
2023-05-19T01:25:05.960Z,96761.84
2023-05-19T01:26:07.463Z,96760.47
2023-05-19T01:27:08.976Z,96762.59
2023-05-19T01:28:10.486Z,96762.84
2023-05-19T01:29:12.013Z,96769.47
2023-05-19T01:30:13.553Z,96760.72
2023-05-19T01:31:15.066Z,96762.84
2023-05-19T01:32:16.725Z,96762.06
2023-05-19T01:33:18.519Z,96766.81
2023-05-19T01:34:20.096Z,96762.81
2023-05-19T01:35:21.635Z,96764.69
2023-05-19T01:36:23.142Z,96766.00
2023-05-19T01:37:24.660Z,96765.47
2023-05-19T01:38:26.155Z,96769.16
2023-05-19T01:39:27.705Z,96762.28
2023-05-19T01:40:29.445Z,96768.63
2023-05-19T01:41:31.148Z,96760.13
2023-05-19T01:42:33.322Z,96761.19
2023-05-19T01:43:35.028Z,96765.94
2023-05-19T01:44:36.611Z,96761.69
2023-05-19T01:45:38.182Z,96757.72
2023-05-19T01:46:39.794Z,96753.47
2023-05-19T01:47:41.501Z,96760.31
2023-05-19T01:48:43.042Z,96765.63
2023-05-19T01:49:44.594Z,96759.78
2023-05-19T01:50:46.150Z,96765.34
2023-05-19T01:51:47.666Z,96767.19
2023-05-19T01:52:52.168Z,96758.72
2023-05-19T01:53:53.836Z,96759.78
2023-05-19T01:54:55.477Z,96759.25
2023-05-19T01:55:57.055Z,96762.94
2023-05-19T01:56:58.776Z,96761.59
2023-05-19T01:58:00.367Z,96755.78
2023-05-19T01:59:01.928Z,96759.47
2023-05-19T02:00:03.495Z,96758.91
2023-05-19T02:01:05.104Z,96753.09
2023-05-19T02:02:06.681Z,96758.38
2023-05-19T02:03:08.374Z,96759.44
2023-05-19T02:04:10.062Z,96760.75
2023-05-19T02:05:11.706Z,96753.88
2023-05-19T02:06:13.435Z,96748.84
2023-05-19T02:07:14.992Z,96755.19
2023-05-19T02:08:16.569Z,96758.09
2023-05-19T02:09:18.525Z,96744.88
2023-05-19T02:10:20.165Z,96753.28
2023-05-19T02:11:21.725Z,96750.91
2023-05-19T02:12:23.331Z,96752.75
2023-05-19T02:13:25.047Z,96750.38
2023-05-19T02:14:26.633Z,96744.53
2023-05-19T02:15:28.378Z,96749.81
2023-05-19T02:16:29.970Z,96742.97
2023-05-19T02:17:31.687Z,96745.06
2023-05-19T02:18:33.233Z,96747.72
2023-05-19T02:19:34.859Z,96741.88
2023-05-19T02:20:36.409Z,96742.91
2023-05-19T02:21:37.999Z,96744.78
2023-05-19T02:22:39.590Z,96743.19
2023-05-19T02:23:41.090Z,96740.56
2023-05-19T02:24:42.634Z,96734.69
2023-05-19T02:25:44.143Z,96748.19
2023-05-19T02:26:45.700Z,96745.56
2023-05-19T02:27:47.236Z,96742.09
2023-05-19T02:28:48.787Z,96739.72
2023-05-19T02:29:50.428Z,96749.47
2023-05-19T02:30:52.037Z,96748.44
2023-05-19T02:31:53.614Z,96745.00
2023-05-19T02:32:55.292Z,96744.47
2023-05-19T02:33:56.931Z,96749.75
2023-05-19T02:34:58.453Z,96750.78
2023-05-19T02:35:59.999Z,96745.50
2023-05-19T02:37:01.582Z,96746.28
2023-05-19T02:38:03.126Z,96742.88
2023-05-19T02:39:04.750Z,96736.00
2023-05-19T02:40:06.285Z,96742.31
2023-05-19T02:41:07.834Z,96739.69
2023-05-19T02:42:09.399Z,96738.09
2023-05-19T02:43:10.939Z,96740.75
2023-05-19T02:44:12.619Z,96743.38
2023-05-19T02:45:14.684Z,96748.69
2023-05-19T02:46:16.259Z,96742.56
2023-05-19T02:47:17.814Z,96741.78
2023-05-19T02:48:19.359Z,96741.78
2023-05-19T02:49:20.877Z,96734.09
2023-05-19T02:50:22.545Z,96734.09
2023-05-19T02:51:24.102Z,96731.75
2023-05-19T02:52:25.829Z,96739.38
2023-05-19T02:53:27.393Z,96735.16
2023-05-19T02:54:28.908Z,96740.44
2023-05-19T02:55:30.484Z,96735.41
2023-05-19T02:56:31.999Z,96732.78
2023-05-19T02:57:33.482Z,96732.00
2023-05-19T02:58:34.983Z,96742.56
2023-05-19T02:59:36.528Z,96743.59
2023-05-19T03:00:38.045Z,96741.75
2023-05-19T03:01:39.658Z,96736.47
2023-05-19T03:02:41.383Z,96732.22
2023-05-19T03:03:43.071Z,96728.81
2023-05-19T03:04:44.664Z,96730.63
2023-05-19T03:05:46.276Z,96735.91
2023-05-19T03:06:47.777Z,96737.78
2023-05-19T03:07:49.310Z,96732.47
2023-05-19T03:08:50.882Z,96736.19
2023-05-19T03:09:52.523Z,96738.00
2023-05-19T03:10:54.108Z,96736.19
2023-05-19T03:11:55.686Z,96732.72
2023-05-19T03:12:57.187Z,96731.94
2023-05-19T03:13:58.699Z,96736.44
2023-05-19T03:15:00.339Z,96727.72
2023-05-19T03:16:01.909Z,96738.28
2023-05-19T03:17:03.494Z,96737.47
2023-05-19T03:18:05.210Z,96729.56
2023-05-19T03:19:06.771Z,96740.94
2023-05-19T03:20:08.291Z,96735.91
2023-05-19T03:21:09.818Z,96738.28
2023-05-19T03:22:11.376Z,96728.75
2023-05-19T03:23:12.924Z,96728.75
2023-05-19T03:24:14.494Z,96731.66
2023-05-19T03:25:16.093Z,96734.03
2023-05-19T03:26:17.694Z,96735.09
2023-05-19T03:27:19.224Z,96741.19
2023-05-19T03:28:20.745Z,96747.25
2023-05-19T03:29:22.305Z,96742.22
2023-05-19T03:30:23.806Z,96743.81
2023-05-19T03:31:25.350Z,96744.06
2023-05-19T03:32:26.984Z,96744.06
2023-05-19T03:33:28.670Z,96741.44
2023-05-19T03:34:30.244Z,96746.72
2023-05-19T03:35:31.771Z,96745.94
2023-05-19T03:36:33.370Z,96734.56
2023-05-19T03:37:34.946Z,96731.09
2023-05-19T03:38:36.497Z,96734.56
2023-05-19T03:39:37.999Z,96739.03
2023-05-19T03:40:39.553Z,96737.22
2023-05-19T03:41:41.125Z,96741.69
2023-05-19T03:42:42.670Z,96732.19
2023-05-19T03:43:44.177Z,96739.03
2023-05-19T03:44:45.675Z,96738.25
2023-05-19T03:45:47.258Z,96739.31
2023-05-19T03:46:48.910Z,96737.47
2023-05-19T03:47:50.580Z,96746.16
2023-05-19T03:48:52.218Z,96745.38
2023-05-19T03:49:53.769Z,96748.03
2023-05-19T03:50:55.367Z,96747.25
2023-05-19T03:51:57.359Z,96753.31
2023-05-19T03:52:59.015Z,96749.88
2023-05-19T03:54:00.544Z,96750.91
2023-05-19T03:55:02.069Z,96751.69
2023-05-19T03:56:03.585Z,96750.91
2023-05-19T03:57:05.105Z,96756.19
2023-05-19T03:58:06.608Z,96750.91
2023-05-19T03:59:08.159Z,96747.47
2023-05-19T04:00:09.681Z,96750.91
2023-05-19T04:01:11.225Z,96762.28
2023-05-19T04:02:12.794Z,96752.78
2023-05-19T04:03:14.490Z,96754.63
2023-05-19T04:04:16.069Z,96750.91
2023-05-19T04:05:17.615Z,96758.84
2023-05-19T04:06:19.169Z,96756.19
2023-05-19T04:07:20.734Z,96756.19
2023-05-19T04:08:22.296Z,96758.31
2023-05-19T04:09:23.877Z,96752.78
2023-05-19T04:10:25.421Z,96758.06
2023-05-19T04:11:26.924Z,96751.97
2023-05-19T04:12:28.491Z,96756.44
2023-05-19T04:13:30.030Z,96752.78
2023-05-19T04:14:31.642Z,96748.53
2023-05-19T04:15:33.183Z,96748.53
2023-05-19T04:16:34.702Z,96749.34
2023-05-19T04:17:36.212Z,96752.78
2023-05-19T04:18:37.743Z,96754.63
2023-05-19T04:19:39.391Z,96752.78
2023-05-19T04:20:40.894Z,96753.81
2023-05-19T04:21:42.424Z,96755.41
2023-05-19T04:22:43.942Z,96751.97
2023-05-19T04:23:45.465Z,96751.16
2023-05-19T04:24:46.953Z,96749.34
2023-05-19T04:25:48.445Z,96747.47
2023-05-19T04:26:49.904Z,96752.78
2023-05-19T04:27:51.660Z,96748.28
2023-05-19T04:28:53.189Z,96747.47
2023-05-19T04:29:54.761Z,96750.13
2023-05-19T04:30:56.336Z,96752.78
2023-05-19T04:31:57.857Z,96748.28
2023-05-19T04:32:59.398Z,96749.34
2023-05-19T04:34:00.875Z,96741.13
2023-05-19T04:35:02.457Z,96749.88
2023-05-19T04:36:03.960Z,96748.03
2023-05-19T04:37:05.519Z,96749.88
2023-05-19T04:38:07.040Z,96740.88
2023-05-19T04:39:08.627Z,96751.47
2023-05-19T04:40:10.142Z,96750.66
2023-05-19T04:41:11.654Z,96750.66
2023-05-19T04:42:13.155Z,96748.81
2023-05-19T04:43:14.680Z,96753.06
2023-05-19T04:44:16.150Z,96750.41
2023-05-19T04:45:17.686Z,96753.84
2023-05-19T04:46:19.217Z,96752.00
2023-05-19T04:47:20.806Z,96755.44
2023-05-19T04:48:22.409Z,96750.16
2023-05-19T04:49:23.909Z,96752.00
2023-05-19T04:50:25.510Z,96750.97
2023-05-19T04:51:27.091Z,96753.59
2023-05-19T04:52:28.691Z,96754.94
2023-05-19T04:53:30.323Z,96748.31
2023-05-19T04:54:31.845Z,96756.25
2023-05-19T04:55:33.771Z,96759.69
2023-05-19T04:56:35.340Z,96763.91
2023-05-19T04:57:37.900Z,96765.50
2023-05-19T04:58:41.836Z,96759.44
2023-05-19T04:59:43.488Z,96759.16
2023-05-19T05:00:45.125Z,96767.09
2023-05-19T05:01:46.799Z,96761.00
2023-05-19T05:02:48.419Z,96757.34
2023-05-19T05:03:50.095Z,96750.97
2023-05-19T05:04:51.649Z,96755.47
2023-05-19T05:05:53.186Z,96750.19
2023-05-19T05:06:54.695Z,96751.53
2023-05-19T05:07:56.181Z,96755.78
2023-05-19T05:08:57.758Z,96750.47
2023-05-19T05:09:59.240Z,96746.00
2023-05-19T05:11:00.780Z,96749.16
2023-05-19T05:12:02.368Z,96749.97
2023-05-19T05:13:06.308Z,96751.56
2023-05-19T05:14:07.959Z,96742.56
2023-05-19T05:15:09.544Z,96745.22
2023-05-19T05:16:11.110Z,96743.38
2023-05-19T05:17:12.716Z,96748.69
2023-05-19T05:18:14.268Z,96745.75
2023-05-19T05:19:15.852Z,96744.72
2023-05-19T05:20:17.405Z,96736.53
2023-05-19T05:21:18.946Z,96739.97
2023-05-19T05:22:20.538Z,96743.16
2023-05-19T05:23:22.140Z,96738.41
2023-05-19T05:24:23.765Z,96736.56
2023-05-19T05:25:25.345Z,96738.16
2023-05-19T05:26:26.906Z,96736.06
2023-05-19T05:27:28.476Z,96742.91
2023-05-19T05:28:30.036Z,96736.59
2023-05-19T05:29:31.571Z,96742.16
2023-05-19T05:30:33.189Z,96741.34
2023-05-19T05:31:34.798Z,96741.91
2023-05-19T05:32:36.455Z,96742.19
2023-05-19T05:33:38.246Z,96742.72
2023-05-19T05:34:39.949Z,96738.78
2023-05-19T05:35:41.657Z,96738.50
2023-05-19T05:36:43.368Z,96734.56
2023-05-19T05:37:45.279Z,96735.13
2023-05-19T05:38:46.869Z,96740.13
2023-05-19T05:39:48.588Z,96731.69
2023-05-19T05:40:50.122Z,96735.91
2023-05-19T05:41:51.769Z,96736.97
2023-05-19T05:42:53.311Z,96742.03
2023-05-19T05:43:54.805Z,96735.44
2023-05-19T05:44:56.379Z,96742.06
2023-05-19T05:45:58.199Z,96740.75
2023-05-19T05:46:59.839Z,96743.66
2023-05-19T05:48:01.518Z,96745.25
2023-05-19T05:49:03.098Z,96742.09
2023-05-19T05:50:04.625Z,96746.88
2023-05-19T05:51:06.225Z,96744.78
2023-05-19T05:52:07.744Z,96740.81
2023-05-19T05:53:09.262Z,96741.38
2023-05-19T05:54:10.731Z,96741.91
2023-05-19T05:55:12.276Z,96748.25
2023-05-19T05:56:13.835Z,96747.75
2023-05-19T05:57:15.376Z,96749.88
2023-05-19T05:58:16.862Z,96749.63
2023-05-19T05:59:18.362Z,96743.00
2023-05-19T06:00:19.898Z,96750.16
2023-05-19T06:01:21.415Z,96743.31
2023-05-19T06:02:22.934Z,96742.75
2023-05-19T06:03:24.726Z,96739.59
2023-05-19T06:04:26.362Z,96738.28
2023-05-19T06:05:27.945Z,96743.03
2023-05-19T06:06:29.500Z,96742.28
2023-05-19T06:07:31.051Z,96740.16
2023-05-19T06:08:32.545Z,96739.63
2023-05-19T06:09:34.061Z,96737.25
2023-05-19T06:10:35.844Z,96735.66
2023-05-19T06:11:37.754Z,96737.00
2023-05-19T06:12:39.280Z,96731.16
2023-05-19T06:13:40.770Z,96734.88
2023-05-19T06:14:42.273Z,96734.34
2023-05-19T06:15:43.761Z,96726.66
2023-05-19T06:16:45.289Z,96728.78
2023-05-19T06:17:47.221Z,96727.47
2023-05-19T06:18:48.786Z,96725.88
2023-05-19T06:19:50.341Z,96729.03
2023-05-19T06:20:51.865Z,96718.72
2023-05-19T06:21:53.471Z,96728.56
2023-05-19T06:22:55.000Z,96722.72
2023-05-19T06:23:56.525Z,96719.56
2023-05-19T06:24:58.133Z,96725.09
2023-05-19T06:25:59.649Z,96723.78
2023-05-19T06:27:01.186Z,96727.22
2023-05-19T06:28:02.683Z,96728.28
2023-05-19T06:29:04.178Z,96729.34
2023-05-19T06:30:05.725Z,96731.69
2023-05-19T06:31:07.285Z,96725.59
2023-05-19T06:32:08.819Z,96728.53
2023-05-19T06:33:10.405Z,96736.72
2023-05-19T06:34:11.915Z,96737.75
2023-05-19T06:35:13.423Z,96737.25
2023-05-19T06:36:14.920Z,96740.16
2023-05-19T06:37:16.427Z,96736.69
2023-05-19T06:38:18.030Z,96733.50
2023-05-19T06:39:19.539Z,96738.78
2023-05-19T06:40:21.080Z,96739.03
2023-05-19T06:41:22.600Z,96741.69
2023-05-19T06:42:24.134Z,96739.00
2023-05-19T06:43:25.627Z,96740.56
2023-05-19T06:44:27.163Z,96745.34
2023-05-19T06:45:28.691Z,96736.03
2023-05-19T06:46:30.244Z,96741.59
2023-05-19T06:47:31.764Z,96737.28
2023-05-19T06:48:33.289Z,96738.31
2023-05-19T06:49:34.766Z,96732.94
2023-05-19T06:50:36.281Z,96739.25
2023-05-19T06:51:37.792Z,96736.81
2023-05-19T06:52:39.274Z,96739.38
2023-05-19T06:53:40.770Z,96739.63
2023-05-19T06:54:42.262Z,96737.97
2023-05-19T06:55:57.482Z,96739.22
2023-05-19T06:57:00.007Z,96737.50
2023-05-19T06:58:01.465Z,96737.22
2023-05-19T06:59:02.940Z,96732.34
2023-05-19T07:00:04.464Z,96739.44
2023-05-19T07:01:06.575Z,96737.25
2023-05-19T07:02:08.251Z,96737.41
2023-05-19T07:03:10.067Z,96732.56
2023-05-19T07:04:11.616Z,96732.75
2023-05-19T07:05:13.128Z,96728.69
2023-05-19T07:06:14.670Z,96728.84
2023-05-19T07:07:16.185Z,96734.34
2023-05-19T07:08:17.689Z,96731.06
2023-05-19T07:09:19.171Z,96727.75
2023-05-19T07:10:21.079Z,96730.59
2023-05-19T07:11:22.629Z,96733.41
2023-05-19T07:12:24.114Z,96723.69
2023-05-19T07:13:27.350Z,96725.75
2023-05-19T07:14:29.167Z,96740.00
2023-05-19T07:15:30.636Z,96728.69
2023-05-19T07:16:32.226Z,96732.28
2023-05-19T07:17:33.755Z,96727.06
2023-05-19T07:18:35.254Z,96729.09
2023-05-19T07:19:36.744Z,96728.13
2023-05-19T07:20:38.278Z,96726.38
2023-05-19T07:21:39.794Z,96731.88
2023-05-19T07:22:41.277Z,96733.56
2023-05-19T07:23:42.795Z,96726.00
2023-05-19T07:24:44.292Z,96720.75
2023-05-19T07:25:45.936Z,96719.00
2023-05-19T07:26:47.476Z,96727.91
2023-05-19T07:27:48.950Z,96713.88
2023-05-19T07:28:50.486Z,96717.41
2023-05-19T07:29:52.018Z,96714.88
2023-05-19T07:30:53.515Z,96718.75
2023-05-19T07:31:55.064Z,96715.09
2023-05-19T07:32:56.682Z,96714.06
2023-05-19T07:33:58.234Z,96721.38
2023-05-19T07:34:59.774Z,96715.81
2023-05-19T07:36:01.274Z,96716.66
2023-05-19T07:37:02.834Z,96719.13
2023-05-19T07:38:04.411Z,96722.69
2023-05-19T07:39:05.936Z,96720.88
2023-05-19T07:40:07.485Z,96719.03
2023-05-19T07:41:09.029Z,96714.84
2023-05-19T07:42:10.585Z,96713.34
2023-05-19T07:43:12.089Z,96716.09
2023-05-19T07:44:13.593Z,96721.47
2023-05-19T07:45:15.090Z,96717.28
2023-05-19T07:46:16.633Z,96724.59
2023-05-19T07:47:18.216Z,96727.00
2023-05-19T07:48:19.690Z,96723.56
2023-05-19T07:49:21.172Z,96719.06
2023-05-19T07:50:22.690Z,96713.41
2023-05-19T07:51:24.195Z,96713.44
2023-05-19T07:52:25.966Z,96718.53
2023-05-19T07:53:27.441Z,96714.78
2023-05-19T07:54:28.964Z,96711.03
2023-05-19T07:55:30.460Z,96716.91
2023-05-19T07:56:31.919Z,96721.19
2023-05-19T07:57:33.478Z,96720.88
2023-05-19T07:58:34.967Z,96718.66
2023-05-19T07:59:36.464Z,96721.84
2023-05-19T08:00:37.957Z,96721.22
2023-05-19T08:01:39.448Z,96718.53
2023-05-19T08:02:41.512Z,96713.16
2023-05-19T08:03:43.167Z,96717.41
2023-05-19T08:04:44.877Z,96706.69
2023-05-19T08:05:46.467Z,96708.25
2023-05-19T08:06:47.954Z,96707.13
2023-05-19T08:07:49.478Z,96704.41
2023-05-19T08:08:51.016Z,96707.06
2023-05-19T08:09:52.489Z,96705.47
2023-05-19T08:10:53.992Z,96706.53
2023-05-19T08:11:55.510Z,96711.88
2023-05-19T08:12:57.115Z,96709.16
2023-05-19T08:13:58.631Z,96707.53
2023-05-19T08:15:01.451Z,96701.69
2023-05-19T08:16:03.385Z,96705.75
2023-05-19T08:17:04.924Z,96699.84
2023-05-19T08:18:06.563Z,96695.41
2023-05-19T08:19:08.109Z,96701.38
2023-05-19T08:20:09.623Z,96705.44
2023-05-19T08:21:11.167Z,96697.53
2023-05-19T08:22:12.659Z,96697.34
2023-05-19T08:23:14.174Z,96706.66
2023-05-19T08:24:15.658Z,96699.81
2023-05-19T08:25:17.152Z,96704.88
2023-05-19T08:26:18.669Z,96699.97
2023-05-19T08:27:20.185Z,96701.19
2023-05-19T08:28:21.731Z,96704.34
2023-05-19T08:29:23.255Z,96701.00
2023-05-19T08:30:24.792Z,96701.47
2023-05-19T08:31:26.342Z,96700.00
2023-05-19T08:32:27.938Z,96700.81
2023-05-19T08:33:29.529Z,96702.56
2023-05-19T08:34:31.005Z,96700.78
2023-05-19T08:35:32.508Z,96702.00
2023-05-19T08:36:34.063Z,96696.78
2023-05-19T08:37:35.564Z,96695.00
2023-05-19T08:38:37.075Z,96697.03
2023-05-19T08:39:38.579Z,96698.28
2023-05-19T08:40:40.078Z,96695.25
2023-05-19T08:41:41.564Z,96697.94
2023-05-19T08:42:43.070Z,96692.88
2023-05-19T08:43:44.591Z,96690.53
2023-05-19T08:44:46.096Z,96690.06
2023-05-19T08:45:47.673Z,96696.13
2023-05-19T08:46:49.244Z,96692.53
2023-05-19T08:47:50.865Z,96683.84
2023-05-19T08:48:52.419Z,96681.81
2023-05-19T08:49:53.912Z,96686.75
2023-05-19T08:50:55.399Z,96686.56
2023-05-19T08:51:56.932Z,96689.63
2023-05-19T08:52:58.424Z,96673.34
2023-05-19T08:53:59.909Z,96669.75
2023-05-19T08:55:01.427Z,96673.84
2023-05-19T08:56:02.991Z,96672.63
2023-05-19T08:57:04.528Z,96675.63
2023-05-19T08:58:06.021Z,96674.38
2023-05-19T08:59:07.508Z,96678.19
2023-05-19T09:00:08.985Z,96680.44
2023-05-19T09:01:10.513Z,96670.78
2023-05-19T09:02:12.148Z,96662.25
2023-05-19T09:03:22.782Z,96666.84
2023-05-19T09:04:26.017Z,96659.56
2023-05-19T09:05:28.183Z,96668.41
2023-05-19T09:06:29.779Z,96666.50
2023-05-19T09:07:31.317Z,96662.72
2023-05-19T09:08:32.833Z,96660.03
2023-05-19T09:09:34.364Z,96665.09
2023-05-19T09:10:35.848Z,96666.63
2023-05-19T09:11:37.353Z,96664.75
2023-05-19T09:12:38.886Z,96662.53
2023-05-19T09:13:40.385Z,96667.56
2023-05-19T09:14:41.854Z,96666.91
2023-05-19T09:15:43.372Z,96668.47
2023-05-19T09:16:44.897Z,96659.75
2023-05-19T09:17:46.499Z,96670.66
2023-05-19T09:18:48.067Z,96661.91
2023-05-19T09:19:49.610Z,96670.91
2023-05-19T09:20:51.130Z,96660.63
2023-05-19T09:21:52.655Z,96667.25
2023-05-19T09:22:54.235Z,96667.38
2023-05-19T09:23:55.741Z,96669.41
2023-05-19T09:24:57.230Z,96666.06
2023-05-19T09:25:58.742Z,96663.50
2023-05-19T09:27:00.551Z,96660.16
2023-05-19T09:28:02.146Z,96657.91
2023-05-19T09:29:03.655Z,96651.88
2023-05-19T09:30:05.172Z,96657.38
2023-05-19T09:31:06.755Z,96650.56
2023-05-19T09:32:08.387Z,96651.00
2023-05-19T09:33:10.081Z,96650.31
2023-05-19T09:34:11.743Z,96653.47
2023-05-19T09:35:13.207Z,96656.63
2023-05-19T09:36:14.767Z,96655.19
2023-05-19T09:37:16.335Z,96652.13
2023-05-19T09:38:17.863Z,96651.81
2023-05-19T09:39:19.391Z,96656.88
2023-05-19T09:40:20.901Z,96658.41
2023-05-19T09:41:22.397Z,96652.25
2023-05-19T09:42:23.900Z,96650.34
2023-05-19T09:43:25.392Z,96653.84
2023-05-19T09:44:26.932Z,96650.03
2023-05-19T09:45:28.453Z,96647.34
2023-05-19T09:46:29.986Z,96645.41
2023-05-19T09:47:31.557Z,96645.41
2023-05-19T09:48:33.055Z,96647.34
2023-05-19T09:49:34.562Z,96639.25
2023-05-19T09:50:36.124Z,96643.84
2023-05-19T09:51:37.685Z,96638.81
2023-05-19T09:52:39.216Z,96641.81
2023-05-19T09:53:40.716Z,96637.25
2023-05-19T09:54:42.276Z,96641.03
2023-05-19T09:55:43.785Z,96637.56
2023-05-19T09:56:45.265Z,96644.50
2023-05-19T09:57:46.770Z,96640.25
2023-05-19T09:58:48.288Z,96641.03
2023-05-19T09:59:49.983Z,96636.44
2023-05-19T10:00:51.518Z,96639.13
2023-05-19T10:01:53.125Z,96645.31
2023-05-19T10:02:54.870Z,96639.94
2023-05-19T10:03:56.607Z,96635.78
2023-05-19T10:04:58.538Z,96635.47
2023-05-19T10:06:00.124Z,96627.84
2023-05-19T10:07:01.675Z,96635.22
2023-05-19T10:08:03.228Z,96624.94
2023-05-19T10:09:04.691Z,96636.16
2023-05-19T10:10:06.199Z,96630.13
2023-05-19T10:11:07.713Z,96633.25
2023-05-19T10:12:09.300Z,96630.69
2023-05-19T10:13:10.856Z,96626.53
2023-05-19T10:14:12.338Z,96628.56
2023-05-19T10:15:13.862Z,96622.50
2023-05-19T10:16:15.403Z,96623.41
2023-05-19T10:17:16.947Z,96622.38
2023-05-19T10:18:18.464Z,96624.09
2023-05-19T10:19:19.964Z,96633.38
2023-05-19T10:20:21.605Z,96622.28
2023-05-19T10:21:23.091Z,96622.41
2023-05-19T10:22:24.593Z,96626.31
2023-05-19T10:23:26.185Z,96627.22
2023-05-19T10:24:27.769Z,96628.44
2023-05-19T10:25:29.329Z,96628.88
2023-05-19T10:26:30.847Z,96627.44
2023-05-19T10:27:32.328Z,96627.91
2023-05-19T10:28:33.826Z,96625.69
2023-05-19T10:29:35.366Z,96627.22
2023-05-19T10:30:36.974Z,96622.28
2023-05-19T10:31:38.568Z,96626.56
2023-05-19T10:32:40.126Z,96631.25
2023-05-19T10:33:41.675Z,96622.06
2023-05-19T10:34:43.202Z,96619.38
2023-05-19T10:35:46.011Z,96626.75
2023-05-19T10:36:48.677Z,96617.56
2023-05-19T10:37:50.219Z,96618.34
2023-05-19T10:38:51.734Z,96616.44
2023-05-19T10:39:53.308Z,96616.88
2023-05-19T10:40:54.957Z,96609.94
2023-05-19T10:41:56.471Z,96619.56
2023-05-19T10:42:57.980Z,96618.78
2023-05-19T10:44:00.155Z,96608.00
2023-05-19T10:45:01.648Z,96607.56
2023-05-19T10:46:03.237Z,96608.78
2023-05-19T10:47:04.729Z,96602.63
2023-05-19T10:48:06.292Z,96608.00
2023-05-19T10:49:07.998Z,96606.91
2023-05-19T10:50:09.562Z,96598.00
2023-05-19T10:51:11.715Z,96603.41
2023-05-19T10:52:13.304Z,96598.81
2023-05-19T10:53:14.830Z,96604.22
2023-05-19T10:54:16.375Z,96598.81
2023-05-19T10:55:17.966Z,96596.13
2023-05-19T10:56:19.610Z,96595.75
2023-05-19T10:57:21.164Z,96598.13
2023-05-19T10:58:22.659Z,96591.63
2023-05-19T10:59:24.159Z,96594.75
2023-05-19T11:00:25.697Z,96593.28
2023-05-19T11:01:27.264Z,96597.56
2023-05-19T11:02:28.847Z,96594.94
2023-05-19T11:04:32.484Z,96599.78
2023-05-19T11:05:34.356Z,96602.09
2023-05-19T11:06:36.110Z,96615.69
2023-05-19T11:07:37.998Z,96613.09
2023-05-19T11:08:39.531Z,96602.44
2023-05-19T11:09:41.150Z,96610.19
2023-05-19T11:10:42.751Z,96607.94
2023-05-19T11:11:44.317Z,96611.50
2023-05-19T11:12:46.556Z,96607.81
2023-05-19T11:13:48.053Z,96607.56
2023-05-19T11:14:49.575Z,96606.19
2023-05-19T11:15:51.086Z,96604.38
2023-05-19T11:16:52.671Z,96601.09
2023-05-19T11:17:54.233Z,96591.94
2023-05-19T11:18:55.719Z,96599.47
2023-05-19T11:19:57.289Z,96593.78
2023-05-19T11:20:58.841Z,96596.25
2023-05-19T11:22:00.351Z,96580.59
2023-05-19T11:23:01.939Z,96579.56
2023-05-19T11:24:03.529Z,96583.91
2023-05-19T11:25:05.096Z,96588.28
2023-05-19T11:26:06.602Z,96579.91
2023-05-19T11:27:08.171Z,96580.00
2023-05-19T11:28:09.730Z,96578.19
2023-05-19T11:29:11.224Z,96576.72
2023-05-19T11:30:12.751Z,96565.97
2023-05-19T11:31:14.255Z,96570.34
2023-05-19T11:32:15.749Z,96565.38
2023-05-19T11:33:17.361Z,96572.00
2023-05-19T11:34:18.912Z,96578.28
2023-05-19T11:35:20.439Z,96581.06
2023-05-19T11:36:21.926Z,96576.88
2023-05-19T11:37:23.444Z,96587.75
2023-05-19T11:38:24.957Z,96579.31
2023-05-19T11:39:26.459Z,96583.25
2023-05-19T11:40:27.939Z,96579.06
2023-05-19T11:41:29.458Z,96570.59
2023-05-19T11:42:30.970Z,96576.44
2023-05-19T11:43:32.553Z,96576.09
2023-05-19T11:44:34.055Z,96573.03
2023-05-19T11:45:35.935Z,96583.13
2023-05-19T11:46:37.917Z,96573.91
2023-05-19T11:47:56.519Z,96572.41
2023-05-19T11:49:00.937Z,96578.34
2023-05-19T11:50:02.401Z,96575.63
2023-05-19T11:51:04.237Z,96566.38
2023-05-19T11:52:05.793Z,96573.34
2023-05-19T11:53:07.345Z,96568.72
2023-05-19T11:54:08.888Z,96574.91
2023-05-19T11:55:10.423Z,96568.38
2023-05-19T11:56:11.906Z,96561.81
2023-05-19T11:57:13.410Z,96568.03
2023-05-19T11:58:15.180Z,96564.97
2023-05-19T11:59:16.695Z,96570.00
2023-05-19T12:00:18.187Z,96566.97
2023-05-19T12:01:19.694Z,96561.56
2023-05-19T12:02:21.224Z,96565.03
2023-05-19T12:03:22.882Z,96569.31
2023-05-19T12:04:24.501Z,96568.53
2023-05-19T12:05:26.143Z,96572.03